sensor_id;sensor_type;location;lat;lon;timestamp;P1;durP1;ratioP1;P2;durP2;ratioP2
12892;SDS011;6514;48.606;9.222;2023-07-09T00:01:40;3.67;;;2.63;;
12892;SDS011;6514;48.606;9.222;2023-07-09T00:04:09;3.87;;;2.67;;
12892;SDS011;6514;48.606;9.222;2023-07-09T00:06:36;4.97;;;2.67;;
12892;SDS011;6514;48.606;9.222;2023-07-09T00:09:04;3.50;;;2.70;;
12892;SDS011;6514;48.606;9.222;2023-07-09T00:11:31;3.63;;;2.43;;
12892;SDS011;6514;48.606;9.222;2023-07-09T00:13:58;3.17;;;2.50;;
12892;SDS011;6514;48.606;9.222;2023-07-09T00:16:25;3.40;;;2.30;;
12892;SDS011;6514;48.606;9.222;2023-07-09T00:18:52;3.93;;;2.73;;
12892;SDS011;6514;48.606;9.222;2023-07-09T00:21:21;3.43;;;2.30;;
12892;SDS011;6514;48.606;9.222;2023-07-09T00:23:48;3.73;;;2.57;;
12892;SDS011;6514;48.606;9.222;2023-07-09T00:26:16;3.97;;;2.73;;
12892;SDS011;6514;48.606;9.222;2023-07-09T00:28:45;5.13;;;2.83;;
12892;SDS011;6514;48.606;9.222;2023-07-09T00:31:13;2.80;;;2.40;;
12892;SDS011;6514;48.606;9.222;2023-07-09T00:33:41;3.23;;;2.47;;
12892;SDS011;6514;48.606;9.222;2023-07-09T00:36:10;2.90;;;2.60;;
12892;SDS011;6514;48.606;9.222;2023-07-09T00:38:42;4.20;;;2.80;;
12892;SDS011;6514;48.606;9.222;2023-07-09T00:41:13;4.00;;;2.63;;
12892;SDS011;6514;48.606;9.222;2023-07-09T00:43:44;3.27;;;2.60;;
12892;SDS011;6514;48.606;9.222;2023-07-09T00:46:16;4.83;;;2.50;;
12892;SDS011;6514;48.606;9.222;2023-07-09T00:48:58;3.67;;;2.27;;
12892;SDS011;6514;48.606;9.222;2023-07-09T00:51:30;5.57;;;2.40;;
12892;SDS011;6514;48.606;9.222;2023-07-09T00:54:01;3.43;;;2.53;;
12892;SDS011;6514;48.606;9.222;2023-07-09T00:56:36;4.03;;;2.67;;
12892;SDS011;6514;48.606;9.222;2023-07-09T00:59:06;4.27;;;2.40;;
12892;SDS011;6514;48.606;9.222;2023-07-09T01:01:39;3.53;;;2.27;;
12892;SDS011;6514;48.606;9.222;2023-07-09T01:04:06;3.73;;;2.37;;
12892;SDS011;6514;48.606;9.222;2023-07-09T01:06:36;3.43;;;2.53;;
12892;SDS011;6514;48.606;9.222;2023-07-09T01:09:09;4.00;;;2.70;;
12892;SDS011;6514;48.606;9.222;2023-07-09T01:11:36;3.73;;;2.77;;
12892;SDS011;6514;48.606;9.222;2023-07-09T01:14:04;4.37;;;2.60;;
12892;SDS011;6514;48.606;9.222;2023-07-09T01:16:33;3.40;;;2.43;;
12892;SDS011;6514;48.606;9.222;2023-07-09T01:19:03;3.97;;;2.83;;
12892;SDS011;6514;48.606;9.222;2023-07-09T01:21:32;3.73;;;2.97;;
12892;SDS011;6514;48.606;9.222;2023-07-09T01:24:10;5.17;;;2.60;;
12892;SDS011;6514;48.606;9.222;2023-07-09T01:26:39;4.37;;;2.60;;
12892;SDS011;6514;48.606;9.222;2023-07-09T01:29:06;5.17;;;3.07;;
12892;SDS011;6514;48.606;9.222;2023-07-09T01:31:33;4.20;;;2.70;;
12892;SDS011;6514;48.606;9.222;2023-07-09T01:34:00;6.53;;;2.90;;
12892;SDS011;6514;48.606;9.222;2023-07-09T01:36:27;2.47;;;2.27;;
12892;SDS011;6514;48.606;9.222;2023-07-09T01:38:55;4.17;;;2.97;;
12892;SDS011;6514;48.606;9.222;2023-07-09T01:41:22;3.73;;;2.70;;
12892;SDS011;6514;48.606;9.222;2023-07-09T01:43:49;4.07;;;2.93;;
12892;SDS011;6514;48.606;9.222;2023-07-09T01:46:16;4.70;;;2.97;;
12892;SDS011;6514;48.606;9.222;2023-07-09T01:48:42;3.10;;;2.57;;
12892;SDS011;6514;48.606;9.222;2023-07-09T01:51:09;3.20;;;2.80;;
12892;SDS011;6514;48.606;9.222;2023-07-09T01:53:38;4.70;;;3.13;;
12892;SDS011;6514;48.606;9.222;2023-07-09T01:56:07;4.13;;;2.87;;
12892;SDS011;6514;48.606;9.222;2023-07-09T01:58:35;3.73;;;2.80;;
12892;SDS011;6514;48.606;9.222;2023-07-09T02:01:01;5.30;;;3.53;;
12892;SDS011;6514;48.606;9.222;2023-07-09T02:03:28;3.50;;;2.57;;
12892;SDS011;6514;48.606;9.222;2023-07-09T02:05:55;4.53;;;2.90;;
12892;SDS011;6514;48.606;9.222;2023-07-09T02:08:22;4.27;;;3.30;;
12892;SDS011;6514;48.606;9.222;2023-07-09T02:10:49;3.13;;;2.53;;
12892;SDS011;6514;48.606;9.222;2023-07-09T02:13:18;3.17;;;2.67;;
12892;SDS011;6514;48.606;9.222;2023-07-09T02:15:45;4.87;;;3.20;;
12892;SDS011;6514;48.606;9.222;2023-07-09T02:18:12;5.30;;;2.60;;
12892;SDS011;6514;48.606;9.222;2023-07-09T02:20:39;3.87;;;2.80;;
12892;SDS011;6514;48.606;9.222;2023-07-09T02:23:06;5.73;;;2.93;;
12892;SDS011;6514;48.606;9.222;2023-07-09T02:25:34;3.73;;;2.53;;
12892;SDS011;6514;48.606;9.222;2023-07-09T02:28:01;5.37;;;2.70;;
12892;SDS011;6514;48.606;9.222;2023-07-09T02:30:29;4.00;;;3.13;;
12892;SDS011;6514;48.606;9.222;2023-07-09T02:32:56;5.10;;;3.00;;
12892;SDS011;6514;48.606;9.222;2023-07-09T02:35:22;4.27;;;2.90;;
12892;SDS011;6514;48.606;9.222;2023-07-09T02:37:49;5.23;;;2.83;;
12892;SDS011;6514;48.606;9.222;2023-07-09T02:40:16;4.77;;;2.73;;
12892;SDS011;6514;48.606;9.222;2023-07-09T02:42:43;3.63;;;2.83;;
12892;SDS011;6514;48.606;9.222;2023-07-09T02:45:10;4.83;;;2.90;;
12892;SDS011;6514;48.606;9.222;2023-07-09T02:47:38;4.00;;;3.03;;
12892;SDS011;6514;48.606;9.222;2023-07-09T02:50:05;4.77;;;3.10;;
12892;SDS011;6514;48.606;9.222;2023-07-09T02:52:32;3.83;;;3.17;;
12892;SDS011;6514;48.606;9.222;2023-07-09T02:54:59;3.87;;;2.93;;
12892;SDS011;6514;48.606;9.222;2023-07-09T02:57:26;5.70;;;3.10;;
12892;SDS011;6514;48.606;9.222;2023-07-09T02:59:52;7.10;;;3.00;;
12892;SDS011;6514;48.606;9.222;2023-07-09T03:02:19;4.50;;;3.10;;
12892;SDS011;6514;48.606;9.222;2023-07-09T03:04:47;5.40;;;3.17;;
12892;SDS011;6514;48.606;9.222;2023-07-09T03:07:14;4.00;;;3.30;;
12892;SDS011;6514;48.606;9.222;2023-07-09T03:09:41;6.17;;;3.60;;
12892;SDS011;6514;48.606;9.222;2023-07-09T03:12:08;4.93;;;3.10;;
12892;SDS011;6514;48.606;9.222;2023-07-09T03:14:35;5.73;;;3.60;;
12892;SDS011;6514;48.606;9.222;2023-07-09T03:17:02;3.80;;;2.87;;
12892;SDS011;6514;48.606;9.222;2023-07-09T03:19:29;6.00;;;3.53;;
12892;SDS011;6514;48.606;9.222;2023-07-09T03:21:57;4.30;;;3.07;;
12892;SDS011;6514;48.606;9.222;2023-07-09T03:24:24;3.73;;;2.90;;
12892;SDS011;6514;48.606;9.222;2023-07-09T03:26:51;5.67;;;3.53;;
12892;SDS011;6514;48.606;9.222;2023-07-09T03:29:18;5.17;;;3.30;;
12892;SDS011;6514;48.606;9.222;2023-07-09T03:31:44;5.77;;;3.67;;
12892;SDS011;6514;48.606;9.222;2023-07-09T03:34:11;4.63;;;3.20;;
12892;SDS011;6514;48.606;9.222;2023-07-09T03:36:38;5.00;;;3.57;;
12892;SDS011;6514;48.606;9.222;2023-07-09T03:39:07;3.80;;;3.23;;
12892;SDS011;6514;48.606;9.222;2023-07-09T03:41:34;5.27;;;3.63;;
12892;SDS011;6514;48.606;9.222;2023-07-09T03:44:00;4.80;;;3.67;;
12892;SDS011;6514;48.606;9.222;2023-07-09T03:46:28;4.93;;;2.97;;
12892;SDS011;6514;48.606;9.222;2023-07-09T03:48:54;5.30;;;3.27;;
12892;SDS011;6514;48.606;9.222;2023-07-09T03:51:21;4.60;;;3.17;;
12892;SDS011;6514;48.606;9.222;2023-07-09T03:53:48;4.97;;;3.37;;
12892;SDS011;6514;48.606;9.222;2023-07-09T03:56:16;4.33;;;3.60;;
12892;SDS011;6514;48.606;9.222;2023-07-09T03:58:43;4.17;;;3.50;;
12892;SDS011;6514;48.606;9.222;2023-07-09T04:01:10;6.80;;;3.60;;
12892;SDS011;6514;48.606;9.222;2023-07-09T04:03:36;4.23;;;3.03;;
12892;SDS011;6514;48.606;9.222;2023-07-09T04:06:03;4.57;;;3.43;;
12892;SDS011;6514;48.606;9.222;2023-07-09T04:08:30;5.70;;;3.20;;
12892;SDS011;6514;48.606;9.222;2023-07-09T04:10:58;5.53;;;3.33;;
12892;SDS011;6514;48.606;9.222;2023-07-09T04:13:28;4.20;;;3.33;;
12892;SDS011;6514;48.606;9.222;2023-07-09T04:15:55;5.90;;;3.30;;
12892;SDS011;6514;48.606;9.222;2023-07-09T04:18:22;5.77;;;3.57;;
12892;SDS011;6514;48.606;9.222;2023-07-09T04:20:49;4.97;;;2.90;;
12892;SDS011;6514;48.606;9.222;2023-07-09T04:23:17;4.63;;;3.43;;
12892;SDS011;6514;48.606;9.222;2023-07-09T04:25:44;5.90;;;3.93;;
12892;SDS011;6514;48.606;9.222;2023-07-09T04:28:11;5.63;;;3.33;;
12892;SDS011;6514;48.606;9.222;2023-07-09T04:30:39;4.90;;;3.53;;
12892;SDS011;6514;48.606;9.222;2023-07-09T04:33:12;3.93;;;3.37;;
12892;SDS011;6514;48.606;9.222;2023-07-09T04:35:42;5.47;;;3.70;;
12892;SDS011;6514;48.606;9.222;2023-07-09T04:38:09;4.37;;;3.70;;
12892;SDS011;6514;48.606;9.222;2023-07-09T04:40:36;3.97;;;3.23;;
12892;SDS011;6514;48.606;9.222;2023-07-09T04:43:03;5.43;;;3.60;;
12892;SDS011;6514;48.606;9.222;2023-07-09T04:45:30;4.40;;;3.30;;
12892;SDS011;6514;48.606;9.222;2023-07-09T04:47:58;3.33;;;3.00;;
12892;SDS011;6514;48.606;9.222;2023-07-09T04:50:25;4.97;;;3.43;;
12892;SDS011;6514;48.606;9.222;2023-07-09T04:52:52;4.97;;;3.27;;
12892;SDS011;6514;48.606;9.222;2023-07-09T04:55:18;6.00;;;3.40;;
12892;SDS011;6514;48.606;9.222;2023-07-09T04:57:45;4.67;;;3.43;;
12892;SDS011;6514;48.606;9.222;2023-07-09T05:00:13;6.07;;;3.50;;
12892;SDS011;6514;48.606;9.222;2023-07-09T05:02:40;4.77;;;3.50;;
12892;SDS011;6514;48.606;9.222;2023-07-09T05:05:08;4.20;;;3.80;;
12892;SDS011;6514;48.606;9.222;2023-07-09T05:07:36;4.30;;;3.30;;
12892;SDS011;6514;48.606;9.222;2023-07-09T05:10:03;4.17;;;3.10;;
12892;SDS011;6514;48.606;9.222;2023-07-09T05:12:31;4.67;;;3.17;;
12892;SDS011;6514;48.606;9.222;2023-07-09T05:14:57;4.43;;;3.23;;
12892;SDS011;6514;48.606;9.222;2023-07-09T05:17:24;7.10;;;3.43;;
12892;SDS011;6514;48.606;9.222;2023-07-09T05:19:51;5.07;;;3.30;;
12892;SDS011;6514;48.606;9.222;2023-07-09T05:22:19;4.47;;;3.00;;
12892;SDS011;6514;48.606;9.222;2023-07-09T05:24:46;5.10;;;3.30;;
12892;SDS011;6514;48.606;9.222;2023-07-09T05:27:13;5.40;;;3.40;;
12892;SDS011;6514;48.606;9.222;2023-07-09T05:29:39;6.57;;;3.97;;
12892;SDS011;6514;48.606;9.222;2023-07-09T05:32:06;5.20;;;3.37;;
12892;SDS011;6514;48.606;9.222;2023-07-09T05:34:33;5.57;;;3.47;;
12892;SDS011;6514;48.606;9.222;2023-07-09T05:37:00;4.43;;;3.33;;
12892;SDS011;6514;48.606;9.222;2023-07-09T05:39:28;5.70;;;3.77;;
12892;SDS011;6514;48.606;9.222;2023-07-09T05:41:55;6.27;;;3.70;;
12892;SDS011;6514;48.606;9.222;2023-07-09T05:44:22;4.83;;;3.40;;
12892;SDS011;6514;48.606;9.222;2023-07-09T05:46:48;4.87;;;3.73;;
12892;SDS011;6514;48.606;9.222;2023-07-09T05:49:15;6.57;;;3.57;;
12892;SDS011;6514;48.606;9.222;2023-07-09T05:51:42;5.20;;;3.37;;
12892;SDS011;6514;48.606;9.222;2023-07-09T05:54:09;7.70;;;3.87;;
12892;SDS011;6514;48.606;9.222;2023-07-09T05:56:37;5.00;;;3.67;;
12892;SDS011;6514;48.606;9.222;2023-07-09T05:59:04;5.07;;;3.03;;
12892;SDS011;6514;48.606;9.222;2023-07-09T06:01:31;3.80;;;3.30;;
12892;SDS011;6514;48.606;9.222;2023-07-09T06:03:58;5.53;;;3.57;;
12892;SDS011;6514;48.606;9.222;2023-07-09T06:06:25;3.57;;;3.23;;
12892;SDS011;6514;48.606;9.222;2023-07-09T06:08:53;4.80;;;3.30;;
12892;SDS011;6514;48.606;9.222;2023-07-09T06:11:20;5.37;;;3.13;;
12892;SDS011;6514;48.606;9.222;2023-07-09T06:13:50;5.27;;;3.33;;
12892;SDS011;6514;48.606;9.222;2023-07-09T06:16:17;5.30;;;3.40;;
12892;SDS011;6514;48.606;9.222;2023-07-09T06:18:45;3.70;;;3.10;;
12892;SDS011;6514;48.606;9.222;2023-07-09T06:21:12;5.20;;;3.17;;
12892;SDS011;6514;48.606;9.222;2023-07-09T06:23:39;4.97;;;3.30;;
12892;SDS011;6514;48.606;9.222;2023-07-09T06:26:05;4.83;;;3.20;;
12892;SDS011;6514;48.606;9.222;2023-07-09T06:28:32;3.50;;;2.83;;
12892;SDS011;6514;48.606;9.222;2023-07-09T06:31:01;4.50;;;3.13;;
12892;SDS011;6514;48.606;9.222;2023-07-09T06:33:28;4.53;;;2.90;;
12892;SDS011;6514;48.606;9.222;2023-07-09T06:35:56;5.70;;;3.37;;
12892;SDS011;6514;48.606;9.222;2023-07-09T06:38:24;5.53;;;3.10;;
12892;SDS011;6514;48.606;9.222;2023-07-09T06:40:51;3.37;;;2.80;;
12892;SDS011;6514;48.606;9.222;2023-07-09T06:43:18;5.13;;;3.10;;
12892;SDS011;6514;48.606;9.222;2023-07-09T06:45:49;4.10;;;2.57;;
12892;SDS011;6514;48.606;9.222;2023-07-09T06:48:18;5.03;;;2.90;;
12892;SDS011;6514;48.606;9.222;2023-07-09T06:50:46;3.53;;;3.00;;
12892;SDS011;6514;48.606;9.222;2023-07-09T06:53:12;3.43;;;3.13;;
12892;SDS011;6514;48.606;9.222;2023-07-09T06:55:39;5.07;;;2.97;;
12892;SDS011;6514;48.606;9.222;2023-07-09T06:58:06;5.10;;;3.17;;
12892;SDS011;6514;48.606;9.222;2023-07-09T07:00:33;6.00;;;3.10;;
12892;SDS011;6514;48.606;9.222;2023-07-09T07:03:01;3.63;;;2.53;;
12892;SDS011;6514;48.606;9.222;2023-07-09T07:05:29;6.53;;;3.33;;
12892;SDS011;6514;48.606;9.222;2023-07-09T07:07:56;3.60;;;3.10;;
12892;SDS011;6514;48.606;9.222;2023-07-09T07:10:23;3.10;;;2.67;;
12892;SDS011;6514;48.606;9.222;2023-07-09T07:12:51;3.83;;;2.80;;
12892;SDS011;6514;48.606;9.222;2023-07-09T07:15:18;3.33;;;2.80;;
12892;SDS011;6514;48.606;9.222;2023-07-09T07:17:45;3.53;;;2.77;;
12892;SDS011;6514;48.606;9.222;2023-07-09T07:20:12;5.77;;;2.97;;
12892;SDS011;6514;48.606;9.222;2023-07-09T07:22:41;4.00;;;3.10;;
12892;SDS011;6514;48.606;9.222;2023-07-09T07:25:08;4.27;;;3.03;;
12892;SDS011;6514;48.606;9.222;2023-07-09T07:27:35;5.43;;;3.27;;
12892;SDS011;6514;48.606;9.222;2023-07-09T07:30:03;4.90;;;2.97;;
12892;SDS011;6514;48.606;9.222;2023-07-09T07:32:33;5.30;;;3.20;;
12892;SDS011;6514;48.606;9.222;2023-07-09T07:35:01;5.70;;;3.03;;
12892;SDS011;6514;48.606;9.222;2023-07-09T07:37:27;3.80;;;3.20;;
12892;SDS011;6514;48.606;9.222;2023-07-09T07:39:56;5.23;;;3.27;;
12892;SDS011;6514;48.606;9.222;2023-07-09T07:42:22;3.00;;;2.70;;
12892;SDS011;6514;48.606;9.222;2023-07-09T07:44:50;3.43;;;3.13;;
12892;SDS011;6514;48.606;9.222;2023-07-09T07:47:17;3.90;;;3.00;;
12892;SDS011;6514;48.606;9.222;2023-07-09T07:49:44;3.90;;;2.87;;
12892;SDS011;6514;48.606;9.222;2023-07-09T07:52:10;3.90;;;2.83;;
12892;SDS011;6514;48.606;9.222;2023-07-09T07:54:38;3.93;;;2.77;;
12892;SDS011;6514;48.606;9.222;2023-07-09T07:57:06;3.50;;;2.90;;
12892;SDS011;6514;48.606;9.222;2023-07-09T07:59:34;4.50;;;3.10;;
12892;SDS011;6514;48.606;9.222;2023-07-09T08:02:01;3.30;;;3.00;;
12892;SDS011;6514;48.606;9.222;2023-07-09T08:04:28;3.87;;;2.90;;
12892;SDS011;6514;48.606;9.222;2023-07-09T08:06:54;3.60;;;2.87;;
12892;SDS011;6514;48.606;9.222;2023-07-09T08:09:22;4.10;;;2.97;;
12892;SDS011;6514;48.606;9.222;2023-07-09T08:11:48;3.03;;;2.70;;
12892;SDS011;6514;48.606;9.222;2023-07-09T08:14:16;5.53;;;2.80;;
12892;SDS011;6514;48.606;9.222;2023-07-09T08:16:43;4.95;;;2.97;;
12892;SDS011;6514;48.606;9.222;2023-07-09T08:19:11;5.00;;;3.53;;
12892;SDS011;6514;48.606;9.222;2023-07-09T08:21:37;4.30;;;2.60;;
12892;SDS011;6514;48.606;9.222;2023-07-09T08:24:05;2.83;;;2.50;;
12892;SDS011;6514;48.606;9.222;2023-07-09T08:26:31;4.60;;;2.72;;
12892;SDS011;6514;48.606;9.222;2023-07-09T08:28:58;4.38;;;2.58;;
12892;SDS011;6514;48.606;9.222;2023-07-09T08:31:26;4.43;;;2.97;;
12892;SDS011;6514;48.606;9.222;2023-07-09T08:33:53;3.50;;;2.58;;
12892;SDS011;6514;48.606;9.222;2023-07-09T08:36:20;3.85;;;3.00;;
12892;SDS011;6514;48.606;9.222;2023-07-09T08:38:47;3.00;;;2.70;;
12892;SDS011;6514;48.606;9.222;2023-07-09T08:41:20;3.42;;;2.40;;
12892;SDS011;6514;48.606;9.222;2023-07-09T08:43:58;3.30;;;2.45;;
12892;SDS011;6514;48.606;9.222;2023-07-09T08:46:37;3.75;;;2.53;;
12892;SDS011;6514;48.606;9.222;2023-07-09T08:49:23;2.95;;;2.47;;
12892;SDS011;6514;48.606;9.222;2023-07-09T08:51:59;3.30;;;1.88;;
12892;SDS011;6514;48.606;9.222;2023-07-09T08:54:27;3.50;;;2.50;;
12892;SDS011;6514;48.606;9.222;2023-07-09T08:56:59;2.55;;;2.10;;
12892;SDS011;6514;48.606;9.222;2023-07-09T08:59:40;3.22;;;2.15;;
12892;SDS011;6514;48.606;9.222;2023-07-09T09:02:14;4.15;;;2.40;;
12892;SDS011;6514;48.606;9.222;2023-07-09T09:04:46;3.25;;;2.53;;
12892;SDS011;6514;48.606;9.222;2023-07-09T09:07:16;2.92;;;2.13;;
12892;SDS011;6514;48.606;9.222;2023-07-09T09:09:54;3.17;;;2.47;;
12892;SDS011;6514;48.606;9.222;2023-07-09T09:12:25;3.17;;;2.30;;
12892;SDS011;6514;48.606;9.222;2023-07-09T09:14:58;3.50;;;2.53;;
12892;SDS011;6514;48.606;9.222;2023-07-09T09:17:30;2.72;;;1.92;;
12892;SDS011;6514;48.606;9.222;2023-07-09T09:20:01;4.05;;;2.55;;
12892;SDS011;6514;48.606;9.222;2023-07-09T09:22:46;4.70;;;2.35;;
12892;SDS011;6514;48.606;9.222;2023-07-09T09:25:20;3.45;;;2.50;;
12892;SDS011;6514;48.606;9.222;2023-07-09T09:27:50;2.75;;;2.25;;
12892;SDS011;6514;48.606;9.222;2023-07-09T09:30:17;3.58;;;2.38;;
12892;SDS011;6514;48.606;9.222;2023-07-09T09:32:52;4.97;;;2.63;;
12892;SDS011;6514;48.606;9.222;2023-07-09T09:35:25;2.97;;;2.40;;
12892;SDS011;6514;48.606;9.222;2023-07-09T09:37:54;4.13;;;2.50;;
12892;SDS011;6514;48.606;9.222;2023-07-09T09:40:22;3.70;;;2.70;;
12892;SDS011;6514;48.606;9.222;2023-07-09T09:42:50;2.58;;;2.10;;
12892;SDS011;6514;48.606;9.222;2023-07-09T09:45:19;3.55;;;2.30;;
12892;SDS011;6514;48.606;9.222;2023-07-09T09:47:47;2.78;;;2.20;;
12892;SDS011;6514;48.606;9.222;2023-07-09T09:50:16;2.90;;;2.08;;
12892;SDS011;6514;48.606;9.222;2023-07-09T09:52:45;3.38;;;2.45;;
12892;SDS011;6514;48.606;9.222;2023-07-09T09:55:15;3.92;;;2.13;;
12892;SDS011;6514;48.606;9.222;2023-07-09T09:57:48;2.40;;;2.20;;
12892;SDS011;6514;48.606;9.222;2023-07-09T10:00:15;2.28;;;2.08;;
12892;SDS011;6514;48.606;9.222;2023-07-09T10:02:43;3.80;;;2.55;;
12892;SDS011;6514;48.606;9.222;2023-07-09T10:05:13;4.97;;;3.13;;
12892;SDS011;6514;48.606;9.222;2023-07-09T10:07:43;3.05;;;1.85;;
12892;SDS011;6514;48.606;9.222;2023-07-09T10:10:15;3.20;;;2.50;;
12892;SDS011;6514;48.606;9.222;2023-07-09T10:12:48;3.33;;;2.38;;
12892;SDS011;6514;48.606;9.222;2023-07-09T10:15:21;3.10;;;2.10;;
12892;SDS011;6514;48.606;9.222;2023-07-09T10:17:58;4.45;;;2.70;;
12892;SDS011;6514;48.606;9.222;2023-07-09T10:20:33;2.95;;;2.25;;
12892;SDS011;6514;48.606;9.222;2023-07-09T10:23:03;2.30;;;2.10;;
12892;SDS011;6514;48.606;9.222;2023-07-09T10:25:39;5.03;;;2.47;;
12892;SDS011;6514;48.606;9.222;2023-07-09T10:31:28;5.03;;;3.20;;
12892;SDS011;6514;48.606;9.222;2023-07-09T10:34:03;2.63;;;2.38;;
12892;SDS011;6514;48.606;9.222;2023-07-09T10:36:44;2.83;;;2.40;;
12892;SDS011;6514;48.606;9.222;2023-07-09T10:39:23;4.07;;;2.50;;
12892;SDS011;6514;48.606;9.222;2023-07-09T10:41:55;3.55;;;2.50;;
12892;SDS011;6514;48.606;9.222;2023-07-09T10:44:25;3.10;;;2.50;;
12892;SDS011;6514;48.606;9.222;2023-07-09T10:46:58;2.78;;;2.53;;
12892;SDS011;6514;48.606;9.222;2023-07-09T10:49:29;2.92;;;2.58;;
12892;SDS011;6514;48.606;9.222;2023-07-09T10:52:03;3.22;;;2.38;;
12892;SDS011;6514;48.606;9.222;2023-07-09T10:54:33;3.75;;;2.63;;
12892;SDS011;6514;48.606;9.222;2023-07-09T10:57:09;2.45;;;2.25;;
12892;SDS011;6514;48.606;9.222;2023-07-09T10:59:43;3.22;;;2.17;;
12892;SDS011;6514;48.606;9.222;2023-07-09T11:02:16;3.55;;;2.40;;
12892;SDS011;6514;48.606;9.222;2023-07-09T11:04:51;3.08;;;2.67;;
12892;SDS011;6514;48.606;9.222;2023-07-09T11:07:23;4.05;;;2.67;;
12892;SDS011;6514;48.606;9.222;2023-07-09T11:09:53;3.83;;;2.47;;
12892;SDS011;6514;48.606;9.222;2023-07-09T11:12:24;3.10;;;2.38;;
12892;SDS011;6514;48.606;9.222;2023-07-09T11:14:58;2.83;;;2.30;;
12892;SDS011;6514;48.606;9.222;2023-07-09T11:17:27;3.42;;;2.60;;
12892;SDS011;6514;48.606;9.222;2023-07-09T11:19:56;7.30;;;5.15;;
12892;SDS011;6514;48.606;9.222;2023-07-09T11:22:27;3.30;;;2.40;;
12892;SDS011;6514;48.606;9.222;2023-07-09T11:25:06;3.88;;;2.65;;
12892;SDS011;6514;48.606;9.222;2023-07-09T11:27:44;3.55;;;2.30;;
12892;SDS011;6514;48.606;9.222;2023-07-09T11:30:18;3.35;;;2.45;;
12892;SDS011;6514;48.606;9.222;2023-07-09T11:32:47;3.45;;;2.63;;
12892;SDS011;6514;48.606;9.222;2023-07-09T11:35:20;2.80;;;2.38;;
12892;SDS011;6514;48.606;9.222;2023-07-09T11:37:50;4.95;;;2.47;;
12892;SDS011;6514;48.606;9.222;2023-07-09T11:40:18;3.88;;;2.88;;
12892;SDS011;6514;48.606;9.222;2023-07-09T11:42:50;4.80;;;3.75;;
12892;SDS011;6514;48.606;9.222;2023-07-09T11:45:20;3.30;;;3.00;;
12892;SDS011;6514;48.606;9.222;2023-07-09T11:47:53;3.00;;;2.70;;
12892;SDS011;6514;48.606;9.222;2023-07-09T11:50:29;4.90;;;2.70;;
12892;SDS011;6514;48.606;9.222;2023-07-09T11:53:00;4.15;;;3.00;;
12892;SDS011;6514;48.606;9.222;2023-07-09T11:55:33;3.20;;;2.30;;
12892;SDS011;6514;48.606;9.222;2023-07-09T11:58:07;4.22;;;2.95;;
12892;SDS011;6514;48.606;9.222;2023-07-09T12:00:37;3.72;;;2.25;;
12892;SDS011;6514;48.606;9.222;2023-07-09T12:03:05;2.78;;;2.47;;
12892;SDS011;6514;48.606;9.222;2023-07-09T12:05:35;4.00;;;2.58;;
12892;SDS011;6514;48.606;9.222;2023-07-09T12:08:05;4.35;;;2.40;;
12892;SDS011;6514;48.606;9.222;2023-07-09T12:10:34;2.55;;;2.35;;
12892;SDS011;6514;48.606;9.222;2023-07-09T12:13:02;3.40;;;2.30;;
12892;SDS011;6514;48.606;9.222;2023-07-09T12:15:29;3.65;;;2.45;;
12892;SDS011;6514;48.606;9.222;2023-07-09T12:17:58;3.72;;;2.50;;
12892;SDS011;6514;48.606;9.222;2023-07-09T12:20:25;3.97;;;2.65;;
12892;SDS011;6514;48.606;9.222;2023-07-09T12:22:55;2.65;;;2.13;;
12892;SDS011;6514;48.606;9.222;2023-07-09T12:25:24;4.13;;;2.30;;
12892;SDS011;6514;48.606;9.222;2023-07-09T12:27:53;4.30;;;2.67;;
12892;SDS011;6514;48.606;9.222;2023-07-09T12:30:20;2.83;;;2.30;;
12892;SDS011;6514;48.606;9.222;2023-07-09T12:32:48;3.72;;;2.65;;
12892;SDS011;6514;48.606;9.222;2023-07-09T12:35:17;5.47;;;2.75;;
12892;SDS011;6514;48.606;9.222;2023-07-09T12:37:46;2.67;;;2.33;;
12892;SDS011;6514;48.606;9.222;2023-07-09T12:40:15;3.80;;;2.35;;
12892;SDS011;6514;48.606;9.222;2023-07-09T12:42:54;2.70;;;2.50;;
12892;SDS011;6514;48.606;9.222;2023-07-09T12:45:22;3.40;;;2.60;;
12892;SDS011;6514;48.606;9.222;2023-07-09T12:47:50;4.30;;;2.55;;
12892;SDS011;6514;48.606;9.222;2023-07-09T12:50:19;2.15;;;1.95;;
12892;SDS011;6514;48.606;9.222;2023-07-09T12:52:54;3.42;;;2.47;;
12892;SDS011;6514;48.606;9.222;2023-07-09T12:55:22;2.78;;;2.55;;
12892;SDS011;6514;48.606;9.222;2023-07-09T12:57:51;3.20;;;2.90;;
12892;SDS011;6514;48.606;9.222;2023-07-09T13:00:22;3.28;;;2.35;;
12892;SDS011;6514;48.606;9.222;2023-07-09T13:02:53;3.22;;;2.15;;
12892;SDS011;6514;48.606;9.222;2023-07-09T13:05:22;3.80;;;2.50;;
12892;SDS011;6514;48.606;9.222;2023-07-09T13:07:51;5.18;;;2.97;;
12892;SDS011;6514;48.606;9.222;2023-07-09T13:10:22;3.20;;;2.30;;
12892;SDS011;6514;48.606;9.222;2023-07-09T13:12:53;4.00;;;2.35;;
12892;SDS011;6514;48.606;9.222;2023-07-09T13:15:23;4.13;;;2.38;;
12892;SDS011;6514;48.606;9.222;2023-07-09T13:17:56;3.70;;;2.40;;
12892;SDS011;6514;48.606;9.222;2023-07-09T13:20:27;4.68;;;2.40;;
12892;SDS011;6514;48.606;9.222;2023-07-09T13:22:55;2.80;;;1.90;;
12892;SDS011;6514;48.606;9.222;2023-07-09T13:25:22;3.72;;;2.20;;
12892;SDS011;6514;48.606;9.222;2023-07-09T13:27:49;2.55;;;1.88;;
12892;SDS011;6514;48.606;9.222;2023-07-09T13:30:16;3.40;;;2.35;;
12892;SDS011;6514;48.606;9.222;2023-07-09T13:32:45;2.65;;;1.77;;
12892;SDS011;6514;48.606;9.222;2023-07-09T13:35:14;2.80;;;2.00;;
12892;SDS011;6514;48.606;9.222;2023-07-09T13:37:43;3.55;;;2.15;;
12892;SDS011;6514;48.606;9.222;2023-07-09T13:40:11;4.03;;;2.50;;
12892;SDS011;6514;48.606;9.222;2023-07-09T13:42:39;4.57;;;2.20;;
12892;SDS011;6514;48.606;9.222;2023-07-09T13:45:09;2.85;;;2.20;;
12892;SDS011;6514;48.606;9.222;2023-07-09T13:47:44;2.53;;;2.08;;
12892;SDS011;6514;48.606;9.222;2023-07-09T13:50:12;2.50;;;2.30;;
12892;SDS011;6514;48.606;9.222;2023-07-09T13:52:39;2.85;;;2.33;;
12892;SDS011;6514;48.606;9.222;2023-07-09T13:55:08;3.10;;;2.30;;
12892;SDS011;6514;48.606;9.222;2023-07-09T13:57:42;3.03;;;2.15;;
12892;SDS011;6514;48.606;9.222;2023-07-09T14:00:10;3.15;;;2.33;;
12892;SDS011;6514;48.606;9.222;2023-07-09T14:02:37;4.18;;;2.30;;
12892;SDS011;6514;48.606;9.222;2023-07-09T14:05:07;3.08;;;2.30;;
12892;SDS011;6514;48.606;9.222;2023-07-09T14:07:38;3.65;;;2.10;;
12892;SDS011;6514;48.606;9.222;2023-07-09T14:10:06;3.55;;;2.28;;
12892;SDS011;6514;48.606;9.222;2023-07-09T14:12:37;3.88;;;1.92;;
12892;SDS011;6514;48.606;9.222;2023-07-09T14:15:11;2.90;;;2.10;;
12892;SDS011;6514;48.606;9.222;2023-07-09T14:17:39;3.22;;;2.22;;
12892;SDS011;6514;48.606;9.222;2023-07-09T14:20:10;3.63;;;2.40;;
12892;SDS011;6514;48.606;9.222;2023-07-09T14:22:38;4.40;;;2.58;;
12892;SDS011;6514;48.606;9.222;2023-07-09T14:25:06;2.25;;;2.05;;
12892;SDS011;6514;48.606;9.222;2023-07-09T14:27:36;3.33;;;2.20;;
12892;SDS011;6514;48.606;9.222;2023-07-09T14:30:03;3.10;;;2.17;;
12892;SDS011;6514;48.606;9.222;2023-07-09T14:32:32;4.93;;;2.63;;
12892;SDS011;6514;48.606;9.222;2023-07-09T14:35:01;2.85;;;2.13;;
12892;SDS011;6514;48.606;9.222;2023-07-09T14:37:30;3.13;;;2.17;;
12892;SDS011;6514;48.606;9.222;2023-07-09T14:39:57;3.63;;;2.00;;
12892;SDS011;6514;48.606;9.222;2023-07-09T14:42:24;3.55;;;2.10;;
12892;SDS011;6514;48.606;9.222;2023-07-09T14:44:50;2.30;;;1.65;;
12892;SDS011;6514;48.606;9.222;2023-07-09T14:47:18;2.50;;;2.15;;
12892;SDS011;6514;48.606;9.222;2023-07-09T14:49:47;2.35;;;1.80;;
12892;SDS011;6514;48.606;9.222;2023-07-09T14:52:16;3.58;;;2.03;;
12892;SDS011;6514;48.606;9.222;2023-07-09T14:54:46;2.83;;;2.13;;
12892;SDS011;6514;48.606;9.222;2023-07-09T14:57:18;2.53;;;1.73;;
12892;SDS011;6514;48.606;9.222;2023-07-09T14:59:46;2.72;;;1.88;;
12892;SDS011;6514;48.606;9.222;2023-07-09T15:02:21;5.25;;;2.33;;
12892;SDS011;6514;48.606;9.222;2023-07-09T15:04:54;2.95;;;2.13;;
12892;SDS011;6514;48.606;9.222;2023-07-09T15:07:20;3.15;;;2.00;;
12892;SDS011;6514;48.606;9.222;2023-07-09T15:09:49;3.75;;;1.95;;
12892;SDS011;6514;48.606;9.222;2023-07-09T15:12:17;2.60;;;2.00;;
12892;SDS011;6514;48.606;9.222;2023-07-09T15:14:48;4.10;;;1.83;;